createdAt,value
2018-07-02T00:00:37.664Z,69.50
2018-07-02T00:03:07.366Z,68.80
2018-07-02T00:05:48.370Z,69.71
2018-07-02T00:08:18.192Z,66.91
2018-07-02T00:10:48.035Z,65.95
2018-07-02T00:13:18.347Z,66.04
2018-07-02T00:15:48.064Z,66.88
2018-07-02T00:18:17.851Z,65.70
2018-07-02T00:20:47.853Z,69.27
2018-07-02T00:23:17.713Z,68.06
2018-07-02T00:25:47.478Z,66.82
2018-07-02T00:28:17.259Z,68.75
2018-07-02T00:30:47.149Z,66.56
2018-07-02T00:33:16.899Z,67.45
2018-07-02T00:35:46.625Z,67.96
2018-07-02T00:38:16.530Z,66.15
2018-07-02T00:40:46.348Z,66.45
2018-07-02T00:43:16.136Z,65.81
2018-07-02T00:45:46.031Z,65.33
2018-07-02T00:48:15.853Z,65.81
2018-07-02T00:50:45.590Z,65.50
2018-07-02T00:53:15.330Z,66.47
2018-07-02T00:55:45.178Z,66.45
2018-07-02T00:58:14.855Z,68.81
2018-07-02T01:00:44.708Z,66.74
2018-07-02T01:03:14.517Z,65.25
2018-07-02T01:05:44.440Z,66.08
2018-07-02T01:08:14.782Z,65.40
2018-07-02T01:10:44.561Z,65.51
2018-07-02T01:13:14.389Z,67.33
2018-07-02T01:15:44.173Z,67.39
2018-07-02T01:18:13.968Z,65.58
2018-07-02T01:20:43.732Z,65.48
2018-07-02T01:23:13.496Z,69.14
2018-07-02T01:25:43.240Z,68.27
2018-07-02T01:28:12.933Z,66.78
2018-07-02T01:30:42.694Z,65.99
2018-07-02T01:33:12.548Z,64.94
2018-07-02T01:35:42.295Z,65.07
2018-07-02T01:38:12.179Z,67.00
2018-07-02T01:40:42.059Z,66.72
2018-07-02T01:43:11.741Z,68.01
2018-07-02T01:45:41.338Z,69.59
2018-07-02T01:48:11.149Z,67.86
2018-07-02T01:50:40.815Z,71.61
2018-07-02T01:53:10.572Z,71.19
2018-07-02T01:55:40.409Z,69.84
2018-07-02T01:58:10.247Z,69.62
2018-07-02T02:00:39.992Z,71.71
2018-07-02T02:03:09.869Z,71.92
2018-07-02T02:05:39.726Z,71.61
2018-07-02T02:08:09.610Z,73.90
2018-07-02T02:10:39.740Z,73.36
2018-07-02T02:13:09.561Z,72.49
2018-07-02T02:15:39.361Z,70.24
2018-07-02T02:18:09.069Z,71.53
2018-07-02T02:20:38.874Z,69.87
2018-07-02T02:23:08.677Z,68.76
2018-07-02T02:25:38.559Z,66.74
2018-07-02T02:28:08.302Z,70.25
2018-07-02T02:30:38.100Z,68.73
2018-07-02T02:33:07.763Z,66.90
2018-07-02T02:35:37.620Z,66.47
2018-07-02T02:38:07.450Z,66.58
2018-07-02T02:40:37.347Z,66.42
2018-07-02T02:43:07.446Z,66.81
2018-07-02T02:45:37.219Z,68.50
2018-07-02T02:48:07.123Z,68.11
2018-07-02T02:50:36.812Z,68.24
2018-07-02T02:53:06.670Z,67.32
2018-07-02T02:55:36.352Z,66.94
2018-07-02T02:58:06.554Z,66.95
2018-07-02T03:04:09.041Z,67.29
2018-07-02T03:06:38.866Z,68.55
2018-07-02T03:09:10.226Z,67.13
2018-07-02T03:11:40.322Z,66.64
2018-07-02T03:14:10.031Z,66.03
2018-07-02T03:16:39.854Z,65.60
2018-07-02T03:19:09.570Z,65.67
2018-07-02T03:21:39.382Z,66.04
2018-07-02T03:24:09.139Z,66.56
2018-07-02T03:26:38.844Z,65.77
2018-07-02T03:29:08.707Z,65.55
2018-07-02T03:31:38.647Z,65.26
2018-07-02T03:34:08.777Z,65.04
2018-07-02T03:36:38.655Z,65.67
2018-07-02T03:39:10.861Z,65.49
2018-07-02T03:41:41.177Z,65.46
2018-07-02T03:44:11.091Z,67.41
2018-07-02T03:46:41.090Z,66.17
2018-07-02T03:49:10.904Z,64.04
2018-07-02T03:51:40.998Z,64.43
2018-07-02T03:54:10.863Z,64.94
2018-07-02T03:56:40.654Z,65.21
2018-07-02T03:59:10.455Z,65.63
2018-07-02T04:01:40.401Z,66.87
2018-07-02T04:04:10.340Z,67.27
2018-07-02T04:06:40.234Z,67.82
2018-07-02T04:09:12.753Z,68.25
2018-07-02T04:11:43.531Z,68.83
2018-07-02T04:14:13.294Z,68.64
2018-07-02T04:16:43.218Z,68.58
2018-07-02T04:19:13.993Z,67.21
2018-07-02T04:21:44.931Z,68.65
2018-07-02T04:24:14.868Z,70.07
2018-07-02T04:26:44.582Z,70.48
2018-07-02T04:29:14.440Z,68.90
2018-07-02T04:31:45.360Z,69.00
2018-07-02T04:34:30.902Z,69.24
2018-07-02T04:37:03.717Z,70.51
2018-07-02T04:39:43.728Z,68.09
2018-07-02T04:42:19.125Z,67.59
2018-07-02T04:45:06.708Z,66.41
2018-07-02T04:48:00.386Z,65.30
2018-07-02T04:50:31.939Z,64.73
2018-07-02T04:53:08.978Z,66.70
2018-07-02T04:55:40.886Z,65.75
2018-07-02T04:58:11.208Z,65.30
2018-07-02T05:00:45.852Z,66.28
2018-07-02T05:03:17.068Z,66.83
2018-07-02T05:06:00.206Z,64.90
2018-07-02T05:08:37.433Z,63.98
2018-07-02T05:11:09.800Z,63.54
2018-07-02T05:13:40.097Z,62.21
2018-07-02T05:16:09.958Z,62.26
2018-07-02T05:18:40.815Z,61.08
2018-07-02T05:21:10.607Z,61.18
2018-07-02T05:23:40.429Z,61.13
2018-07-02T05:26:10.156Z,60.79
2018-07-02T05:28:40.669Z,61.96
2018-07-02T05:31:10.718Z,64.97
2018-07-02T05:33:40.852Z,65.14
2018-07-02T05:36:11.079Z,65.17
2018-07-02T05:38:41.164Z,65.69
2018-07-02T05:42:39.922Z,65.14
2018-07-02T05:45:09.737Z,63.09
2018-07-02T05:47:39.560Z,60.82
2018-07-02T05:50:10.513Z,60.61
2018-07-02T05:52:40.413Z,59.30
2018-07-02T05:55:11.282Z,60.82
2018-07-02T05:57:41.705Z,60.66
2018-07-02T06:00:12.794Z,59.20
2018-07-02T06:02:42.541Z,59.67
2018-07-02T06:05:12.442Z,59.70
2018-07-02T06:07:43.119Z,59.50
2018-07-02T06:10:13.013Z,58.63
2018-07-02T06:12:42.849Z,59.04
2018-07-02T06:15:12.983Z,57.21
2018-07-02T06:17:43.404Z,57.70
2018-07-02T06:20:13.295Z,58.32
2018-07-02T06:22:43.021Z,59.56
2018-07-02T06:25:12.928Z,59.00
2018-07-02T06:27:42.695Z,59.16
2018-07-02T06:30:12.359Z,57.33
2018-07-02T06:32:42.163Z,55.12
2018-07-02T06:35:12.130Z,54.50
2018-07-02T06:37:41.920Z,53.47
2018-07-02T06:40:11.948Z,52.87
2018-07-02T06:42:41.764Z,52.68
2018-07-02T06:45:12.484Z,51.77
2018-07-02T06:47:43.844Z,52.91
2018-07-02T06:50:14.049Z,50.17
2018-07-02T06:52:45.048Z,49.35
2018-07-02T06:55:14.897Z,49.07
2018-07-02T06:57:45.626Z,49.99
2018-07-02T07:00:15.507Z,51.27
2018-07-02T07:02:45.296Z,50.04
2018-07-02T07:05:15.199Z,48.57
2018-07-02T07:07:45.754Z,49.89
2018-07-02T07:10:15.543Z,48.00
2018-07-02T07:12:45.469Z,47.05
2018-07-02T07:15:15.672Z,45.96
2018-07-02T07:17:45.625Z,45.58
2018-07-02T07:20:15.412Z,47.21
2018-07-02T07:22:45.070Z,43.78
2018-07-02T07:25:14.880Z,45.36
2018-07-02T07:31:17.844Z,42.03
2018-07-02T07:33:47.567Z,42.68
2018-07-02T07:36:17.470Z,42.27
2018-07-02T07:38:47.274Z,40.45
2018-07-02T07:41:17.082Z,40.94
2018-07-02T07:43:46.714Z,41.98
2018-07-02T07:46:16.448Z,41.30
2018-07-02T07:48:46.203Z,40.91
2018-07-02T07:51:15.945Z,40.91
2018-07-02T07:53:45.751Z,43.27
2018-07-02T07:56:15.499Z,43.26
2018-07-02T07:58:45.327Z,42.55
2018-07-02T08:01:15.171Z,40.06
2018-07-02T08:03:45.153Z,40.05
2018-07-02T08:06:14.918Z,39.90
2018-07-02T08:08:44.707Z,39.83
2018-07-02T08:11:14.507Z,39.82
2018-07-02T08:14:48.027Z,43.31
2018-07-02T08:17:17.646Z,41.73
2018-07-02T08:19:47.409Z,40.26
2018-07-02T08:22:17.348Z,37.57
2018-07-02T08:24:47.057Z,38.40
2018-07-02T08:27:16.932Z,39.01
2018-07-02T08:29:46.785Z,38.51
2018-07-02T08:32:16.549Z,36.28
2018-07-02T08:34:46.404Z,36.74
2018-07-02T08:37:16.349Z,37.41
2018-07-02T08:39:46.098Z,37.51
2018-07-02T08:42:15.812Z,34.74
2018-07-02T08:44:45.589Z,35.72
2018-07-02T08:47:15.430Z,34.53
2018-07-02T08:49:45.211Z,35.21
2018-07-02T08:52:15.080Z,36.86
2018-07-02T08:54:44.805Z,38.69
2018-07-02T08:57:14.652Z,37.82
2018-07-02T08:59:44.472Z,39.10
2018-07-02T09:02:14.247Z,36.71
2018-07-02T09:04:43.926Z,39.16
2018-07-02T09:07:13.741Z,39.94
2018-07-02T09:09:43.550Z,39.96
2018-07-02T09:12:13.323Z,38.41
2018-07-02T09:14:43.402Z,39.63
2018-07-02T09:17:12.990Z,37.31
2018-07-02T09:19:43.034Z,37.82
2018-07-02T09:22:12.885Z,32.52
2018-07-02T09:24:42.672Z,35.37
2018-07-02T09:27:12.477Z,35.35
2018-07-02T09:29:42.223Z,35.97
2018-07-02T09:32:11.964Z,33.77
2018-07-02T09:34:41.910Z,34.99
2018-07-02T09:37:11.646Z,35.84
2018-07-02T09:39:41.487Z,37.58
2018-07-02T09:42:11.347Z,37.92
2018-07-02T09:44:41.054Z,37.31
2018-07-02T09:47:10.835Z,34.07
2018-07-02T09:49:40.632Z,35.07
2018-07-02T09:52:10.365Z,32.53
2018-07-02T09:54:40.186Z,36.61
2018-07-02T09:57:09.951Z,33.77
2018-07-02T09:59:39.659Z,34.30
2018-07-02T10:02:09.330Z,34.92
2018-07-02T10:04:39.130Z,36.25
2018-07-02T10:07:09.016Z,37.41
2018-07-02T10:09:38.760Z,38.37
2018-07-02T10:12:08.587Z,39.27
2018-07-02T10:14:38.329Z,39.82
2018-07-02T10:17:08.069Z,40.25
2018-07-02T10:19:37.826Z,36.47
2018-07-02T10:22:08.197Z,37.49
2018-07-02T10:24:37.900Z,35.24
2018-07-02T10:27:07.764Z,34.90
2018-07-02T10:29:37.495Z,36.38
2018-07-02T10:32:07.167Z,35.99
2018-07-02T10:34:36.918Z,34.17
2018-07-02T10:37:06.647Z,34.25
2018-07-02T10:39:36.322Z,32.14
2018-07-02T10:42:06.153Z,34.06
2018-07-02T10:44:35.927Z,33.42
2018-07-02T10:47:05.702Z,35.19
2018-07-02T10:49:36.035Z,31.96
2018-07-02T10:52:05.886Z,30.52
2018-07-02T10:54:35.718Z,31.60
2018-07-02T10:57:05.457Z,32.27
2018-07-02T10:59:35.759Z,32.91
2018-07-02T11:02:06.195Z,34.69
2018-07-02T11:04:36.451Z,35.13
2018-07-02T11:07:07.108Z,34.15
2018-07-02T11:09:37.242Z,36.26
2018-07-02T11:12:08.378Z,36.26
2018-07-02T11:14:38.755Z,36.37
2018-07-02T11:17:09.149Z,37.06
2018-07-02T11:19:39.594Z,34.57
2018-07-02T11:22:10.454Z,32.38
2018-07-02T11:24:40.858Z,32.28
2018-07-02T11:27:11.529Z,31.13
2018-07-02T11:29:42.250Z,33.48
2018-07-02T11:32:13.116Z,32.65
2018-07-02T11:34:43.842Z,35.00
2018-07-02T11:37:14.439Z,34.08
2018-07-02T11:39:44.866Z,34.99
2018-07-02T11:42:16.005Z,36.45
2018-07-02T11:44:46.382Z,37.78
2018-07-02T11:47:17.179Z,38.05
2018-07-02T11:49:47.898Z,36.95
2018-07-02T11:52:18.972Z,34.44
2018-07-02T11:54:49.473Z,36.93
2018-07-02T11:57:20.287Z,35.41
2018-07-02T11:59:50.960Z,35.83
2018-07-02T12:02:22.244Z,37.00
2018-07-02T12:04:59.089Z,37.04
2018-07-02T12:07:29.721Z,36.45
2018-07-02T12:10:00.524Z,37.49
2018-07-02T12:12:31.649Z,38.05
2018-07-02T12:15:02.051Z,38.34
2018-07-02T12:17:32.425Z,38.94
2018-07-02T12:20:02.998Z,38.76
2018-07-02T12:22:33.476Z,40.10
2018-07-02T12:25:04.149Z,40.10
2018-07-02T12:27:34.618Z,37.23
2018-07-02T12:30:05.282Z,37.24
2018-07-02T12:32:36.160Z,37.49
2018-07-02T12:35:06.727Z,36.83
2018-07-02T12:37:37.183Z,36.17
2018-07-02T13:23:51.295Z,34.99
2018-07-02T13:26:20.969Z,34.17
2018-07-02T13:28:50.899Z,35.22
2018-07-02T13:31:20.524Z,34.53
2018-07-02T13:33:50.250Z,34.13
2018-07-02T13:36:20.316Z,35.70
2018-07-02T13:38:50.912Z,33.73
2018-07-02T13:41:20.950Z,31.86
2018-07-02T13:43:50.840Z,32.04
2018-07-02T13:46:20.680Z,31.62
2018-07-02T13:48:50.422Z,32.15
2018-07-02T13:51:20.668Z,32.36
2018-07-02T13:53:50.973Z,31.82
2018-07-02T13:56:21.577Z,31.47
2018-07-02T13:58:52.351Z,32.91
2018-07-02T14:01:21.996Z,31.69
2018-07-02T14:03:51.762Z,31.59
2018-07-02T14:06:22.204Z,32.13
2018-07-02T14:08:51.948Z,31.56
2018-07-02T14:11:21.763Z,32.88
2018-07-02T14:13:51.594Z,30.77
2018-07-02T14:16:21.316Z,30.48
2018-07-02T14:18:51.048Z,32.33
2018-07-02T14:21:20.869Z,32.78
2018-07-02T14:23:50.586Z,31.15
2018-07-02T14:26:20.643Z,30.84
2018-07-02T14:28:50.827Z,31.72
2018-07-02T14:31:20.497Z,31.18
2018-07-02T14:33:50.159Z,31.42
2018-07-02T14:36:19.931Z,31.05
2018-07-02T14:38:49.753Z,31.47
2018-07-02T14:41:19.837Z,31.37
2018-07-02T14:43:49.510Z,31.81
2018-07-02T14:46:19.307Z,31.93
2018-07-02T14:48:48.992Z,32.78
2018-07-02T14:51:18.816Z,31.35
2018-07-02T14:53:48.564Z,31.17
2018-07-02T14:56:18.117Z,32.13
2018-07-02T14:58:47.940Z,32.34
2018-07-02T15:01:17.725Z,32.35
2018-07-02T15:03:47.586Z,33.42
2018-07-02T15:06:17.363Z,33.29
2018-07-02T15:08:47.214Z,32.93
2018-07-02T15:11:16.993Z,33.39
2018-07-02T15:13:46.777Z,33.90
2018-07-02T15:16:16.454Z,32.86
2018-07-02T15:18:46.113Z,32.43
2018-07-02T15:21:15.848Z,33.54
2018-07-02T15:23:45.597Z,32.84
2018-07-02T15:26:15.399Z,33.24
2018-07-02T15:28:45.436Z,32.56
2018-07-02T15:31:15.116Z,33.48
2018-07-02T15:33:45.118Z,33.50
2018-07-02T15:36:14.926Z,33.94
2018-07-02T15:38:44.881Z,32.49
2018-07-02T15:41:14.594Z,33.06
2018-07-02T15:43:44.421Z,32.78
2018-07-02T15:46:14.161Z,33.61
2018-07-02T15:48:44.011Z,35.20
2018-07-02T15:51:13.879Z,34.82
2018-07-02T15:53:43.634Z,34.34
2018-07-02T15:56:13.430Z,34.71
2018-07-02T15:58:43.280Z,35.36
2018-07-02T16:01:13.280Z,35.93
2018-07-02T16:03:42.841Z,35.33
2018-07-02T16:06:12.533Z,36.57
2018-07-02T16:08:42.284Z,35.89
2018-07-02T16:57:55.522Z,38.51
2018-07-02T17:00:25.397Z,39.43
2018-07-02T17:02:55.312Z,39.46
2018-07-02T17:05:25.169Z,39.77
2018-07-02T17:07:55.209Z,39.08
2018-07-02T17:10:25.131Z,39.49
2018-07-02T17:12:54.921Z,39.13
2018-07-02T17:15:24.684Z,40.43
2018-07-02T17:17:54.470Z,39.65
2018-07-02T17:20:24.318Z,40.02
2018-07-02T17:22:54.105Z,39.91
2018-07-02T17:25:23.847Z,39.58
2018-07-02T17:27:53.633Z,39.84
2018-07-02T17:30:23.312Z,40.56
2018-07-02T17:32:53.147Z,40.27
2018-07-02T17:35:22.938Z,40.42
2018-07-02T17:37:53.230Z,39.95
2018-07-02T17:40:22.973Z,41.16
2018-07-02T17:42:52.827Z,41.16
2018-07-02T17:45:22.604Z,40.78
2018-07-02T17:47:52.513Z,41.10
2018-07-02T17:50:22.353Z,42.29
2018-07-02T17:52:52.154Z,42.22
2018-07-02T17:55:21.832Z,42.25
2018-07-02T17:57:51.858Z,42.31
2018-07-02T18:00:22.020Z,45.20
2018-07-02T18:02:52.146Z,44.34
2018-07-02T18:05:21.946Z,45.52
2018-07-02T18:07:51.728Z,46.95
2018-07-02T18:10:21.562Z,46.24
2018-07-02T18:12:51.340Z,43.28
2018-07-02T18:15:21.232Z,44.84
2018-07-02T18:17:51.036Z,45.00
2018-07-02T18:20:20.900Z,44.85
2018-07-02T18:22:50.706Z,45.68
2018-07-02T18:25:20.554Z,47.85
2018-07-02T18:27:50.448Z,48.79
2018-07-02T18:33:53.197Z,49.38
2018-07-02T18:36:22.998Z,48.68
2018-07-02T18:38:52.751Z,49.57
2018-07-02T18:41:22.551Z,49.47
2018-07-02T18:43:52.414Z,50.62
2018-07-02T18:46:22.932Z,51.60
2018-07-02T18:48:52.803Z,52.16
2018-07-02T18:51:22.690Z,49.99
2018-07-02T18:53:52.411Z,50.47
2018-07-02T18:56:22.220Z,49.92
2018-07-02T18:58:52.311Z,51.43
2018-07-02T19:01:22.551Z,51.79
2018-07-02T19:03:52.356Z,50.97
2018-07-02T19:06:22.319Z,51.44
2018-07-02T19:08:53.007Z,51.17
2018-07-02T19:11:22.817Z,50.65
2018-07-02T19:13:52.943Z,51.65
2018-07-02T19:19:23.701Z,53.86
2018-07-02T19:21:53.455Z,52.15
2018-07-02T19:24:23.194Z,52.41
2018-07-02T19:26:53.058Z,54.58
2018-07-02T19:29:22.864Z,53.33
2018-07-02T19:31:52.878Z,54.58
2018-07-02T19:34:22.722Z,54.37
2018-07-02T19:36:52.550Z,52.95
2018-07-02T19:39:22.294Z,53.16
2018-07-02T19:41:51.997Z,53.43
2018-07-02T19:44:21.675Z,53.68
2018-07-02T19:46:51.412Z,53.37
2018-07-02T19:49:21.289Z,53.63
2018-07-02T19:51:51.152Z,55.12
2018-07-02T19:54:21.024Z,56.42
2018-07-02T19:56:50.770Z,57.06
2018-07-02T19:59:20.515Z,57.10
2018-07-02T20:01:50.667Z,57.60
2018-07-02T20:04:20.497Z,56.31
2018-07-02T20:06:50.402Z,55.10
2018-07-02T20:09:20.255Z,54.46
2018-07-02T20:11:50.955Z,54.56
2018-07-02T20:14:21.375Z,56.29
2018-07-02T20:16:52.326Z,54.73
2018-07-02T20:19:23.394Z,54.90
2018-07-02T20:21:53.782Z,56.15
2018-07-02T20:24:24.221Z,54.93
2018-07-02T20:26:54.742Z,54.99
2018-07-02T20:29:25.309Z,55.08
2018-07-02T20:31:55.896Z,57.63
2018-07-02T20:34:26.459Z,58.31
2018-07-02T20:36:56.789Z,58.47
2018-07-02T20:39:28.315Z,58.33
2018-07-02T20:41:58.772Z,57.47
2018-07-02T20:44:29.229Z,57.74
2018-07-02T20:46:59.713Z,57.91
2018-07-02T20:49:30.107Z,57.07
2018-07-02T20:52:00.766Z,56.95
2018-07-02T20:54:31.170Z,57.89
2018-07-02T20:57:01.834Z,56.80
2018-07-02T20:59:33.278Z,58.33
2018-07-02T21:02:04.100Z,56.21
2018-07-02T21:04:35.246Z,55.97
2018-07-02T21:07:05.953Z,55.67
2018-07-02T21:09:37.145Z,56.09
2018-07-02T21:12:07.448Z,56.03
2018-07-02T21:14:37.879Z,55.93
2018-07-02T21:17:08.318Z,56.04
2018-07-02T21:19:39.129Z,56.40
2018-07-02T21:22:10.083Z,56.87
2018-07-02T21:24:40.660Z,57.89
2018-07-02T21:27:10.948Z,56.93
2018-07-02T21:29:42.005Z,56.80
2018-07-02T21:32:12.752Z,55.66
2018-07-02T21:34:43.000Z,56.70
2018-07-02T21:37:13.623Z,56.33
2018-07-02T21:39:44.820Z,57.21
2018-07-02T21:42:15.048Z,57.15
2018-07-02T21:44:45.451Z,57.15
2018-07-02T21:47:15.902Z,56.86
2018-07-02T21:49:47.101Z,56.71
2018-07-02T21:52:17.413Z,57.06
2018-07-02T21:54:48.034Z,56.74
2018-07-02T21:57:18.623Z,57.08
2018-07-02T21:59:49.714Z,58.76
2018-07-02T22:02:20.672Z,58.06
2018-07-02T22:04:51.093Z,56.98
2018-07-02T22:07:21.402Z,57.23
2018-07-02T22:09:51.887Z,57.62
2018-07-02T22:12:22.185Z,57.28
2018-07-02T22:14:52.873Z,59.97
2018-07-02T22:17:23.348Z,59.14
2018-07-02T22:19:54.357Z,58.02
2018-07-02T22:22:25.026Z,57.23
2018-07-02T22:24:55.439Z,56.88
2018-07-02T22:27:26.042Z,57.05
2018-07-02T22:29:56.496Z,58.56
2018-07-02T22:32:27.234Z,58.15
2018-07-02T22:34:57.871Z,57.12
2018-07-02T22:37:28.453Z,57.37
2018-07-02T22:39:59.569Z,57.33
2018-07-02T22:42:29.936Z,57.51
2018-07-02T22:45:00.412Z,57.13
2018-07-02T22:47:31.019Z,58.10
2018-07-02T22:50:02.054Z,58.31
2018-07-02T22:52:32.444Z,59.47
2018-07-02T22:55:03.114Z,59.78
2018-07-02T22:57:33.602Z,61.40
2018-07-02T23:00:04.594Z,59.69
2018-07-02T23:02:35.562Z,61.15
2018-07-02T23:05:06.621Z,63.08
2018-07-02T23:07:37.488Z,61.73
2018-07-02T23:10:07.994Z,59.91
2018-07-02T23:12:38.456Z,59.75
2018-07-02T23:15:08.194Z,59.82
2018-07-02T23:17:38.100Z,61.38
2018-07-02T23:20:07.887Z,60.17
2018-07-02T23:22:52.355Z,59.90
2018-07-02T23:25:22.065Z,59.76
2018-07-02T23:27:51.901Z,58.46
2018-07-02T23:30:22.280Z,59.26
2018-07-02T23:32:52.003Z,61.82
2018-07-02T23:35:21.777Z,60.91
2018-07-02T23:37:52.703Z,61.92
2018-07-02T23:40:23.978Z,60.73
2018-07-02T23:42:55.243Z,59.81
2018-07-02T23:45:25.874Z,62.53
2018-07-02T23:47:56.385Z,64.42
2018-07-02T23:50:27.474Z,63.93
2018-07-02T23:52:58.103Z,62.67
2018-07-02T23:55:28.672Z,61.38
2018-07-02T23:57:59.093Z,60.31
